sensor_id;sensor_type;location;lat;lon;timestamp;P1;durP1;ratioP1;P2;durP2;ratioP2
29954;SDS011;68448;51.188;6.868;2024-01-16T00:00:20;12.23;;;7.50;;
29954;SDS011;68448;51.188;6.868;2024-01-16T00:02:48;14.67;;;7.87;;
29954;SDS011;68448;51.188;6.868;2024-01-16T00:05:16;10.37;;;7.20;;
29954;SDS011;68448;51.188;6.868;2024-01-16T00:07:43;10.30;;;7.23;;
29954;SDS011;68448;51.188;6.868;2024-01-16T00:10:10;11.73;;;7.67;;
29954;SDS011;68448;51.188;6.868;2024-01-16T00:12:37;15.50;;;7.70;;
29954;SDS011;68448;51.188;6.868;2024-01-16T00:15:05;10.50;;;6.97;;
29954;SDS011;68448;51.188;6.868;2024-01-16T00:17:32;11.80;;;7.20;;
29954;SDS011;68448;51.188;6.868;2024-01-16T00:20:00;15.10;;;7.33;;
29954;SDS011;68448;51.188;6.868;2024-01-16T00:22:28;12.03;;;8.40;;
29954;SDS011;68448;51.188;6.868;2024-01-16T00:24:55;9.30;;;6.77;;
29954;SDS011;68448;51.188;6.868;2024-01-16T00:27:22;17.47;;;10.00;;
29954;SDS011;68448;51.188;6.868;2024-01-16T00:29:49;15.07;;;7.80;;
29954;SDS011;68448;51.188;6.868;2024-01-16T00:32:16;10.40;;;7.50;;
29954;SDS011;68448;51.188;6.868;2024-01-16T00:34:44;18.73;;;7.93;;
29954;SDS011;68448;51.188;6.868;2024-01-16T00:37:12;15.70;;;7.77;;
29954;SDS011;68448;51.188;6.868;2024-01-16T00:39:40;9.50;;;6.97;;
29954;SDS011;68448;51.188;6.868;2024-01-16T00:42:07;11.67;;;7.30;;
29954;SDS011;68448;51.188;6.868;2024-01-16T00:44:34;16.93;;;7.10;;
29954;SDS011;68448;51.188;6.868;2024-01-16T00:47:01;19.60;;;6.80;;
29954;SDS011;68448;51.188;6.868;2024-01-16T00:49:28;15.10;;;7.90;;
29954;SDS011;68448;51.188;6.868;2024-01-16T00:51:56;16.20;;;8.37;;
29954;SDS011;68448;51.188;6.868;2024-01-16T00:54:24;12.37;;;8.60;;
29954;SDS011;68448;51.188;6.868;2024-01-16T00:56:51;15.63;;;7.20;;
29954;SDS011;68448;51.188;6.868;2024-01-16T00:59:19;13.23;;;8.40;;
29954;SDS011;68448;51.188;6.868;2024-01-16T01:01:46;15.50;;;8.33;;
29954;SDS011;68448;51.188;6.868;2024-01-16T01:04:13;15.93;;;9.57;;
29954;SDS011;68448;51.188;6.868;2024-01-16T01:06:40;16.90;;;9.37;;
29954;SDS011;68448;51.188;6.868;2024-01-16T01:09:07;18.87;;;11.83;;
29954;SDS011;68448;51.188;6.868;2024-01-16T01:11:36;17.77;;;10.57;;
29954;SDS011;68448;51.188;6.868;2024-01-16T01:14:03;16.87;;;11.30;;
29954;SDS011;68448;51.188;6.868;2024-01-16T01:16:30;21.43;;;10.57;;
29954;SDS011;68448;51.188;6.868;2024-01-16T01:18:57;17.93;;;11.10;;
29954;SDS011;68448;51.188;6.868;2024-01-16T01:21:25;20.90;;;10.70;;
29954;SDS011;68448;51.188;6.868;2024-01-16T01:23:52;21.57;;;11.60;;
29954;SDS011;68448;51.188;6.868;2024-01-16T01:26:19;23.40;;;12.80;;
29954;SDS011;68448;51.188;6.868;2024-01-16T01:28:48;25.30;;;11.63;;
29954;SDS011;68448;51.188;6.868;2024-01-16T01:31:15;21.87;;;12.10;;
29954;SDS011;68448;51.188;6.868;2024-01-16T01:33:42;21.80;;;12.27;;
29954;SDS011;68448;51.188;6.868;2024-01-16T01:36:09;21.63;;;10.90;;
29954;SDS011;68448;51.188;6.868;2024-01-16T01:38:36;25.80;;;13.23;;
29954;SDS011;68448;51.188;6.868;2024-01-16T01:41:03;19.30;;;12.37;;
29954;SDS011;68448;51.188;6.868;2024-01-16T01:43:33;20.30;;;12.20;;
29954;SDS011;68448;51.188;6.868;2024-01-16T01:46:09;22.93;;;13.33;;
29954;SDS011;68448;51.188;6.868;2024-01-16T01:48:37;22.80;;;12.07;;
29954;SDS011;68448;51.188;6.868;2024-01-16T01:51:04;22.30;;;11.73;;
29954;SDS011;68448;51.188;6.868;2024-01-16T01:53:32;17.73;;;11.40;;
29954;SDS011;68448;51.188;6.868;2024-01-16T01:56:01;19.10;;;10.23;;
29954;SDS011;68448;51.188;6.868;2024-01-16T01:58:29;14.60;;;10.27;;
29954;SDS011;68448;51.188;6.868;2024-01-16T02:00:57;17.83;;;11.60;;
29954;SDS011;68448;51.188;6.868;2024-01-16T02:03:27;20.27;;;10.20;;
29954;SDS011;68448;51.188;6.868;2024-01-16T02:05:54;15.20;;;9.00;;
29954;SDS011;68448;51.188;6.868;2024-01-16T02:08:22;15.37;;;11.03;;
29954;SDS011;68448;51.188;6.868;2024-01-16T02:10:49;17.63;;;8.80;;
29954;SDS011;68448;51.188;6.868;2024-01-16T02:13:18;15.23;;;9.33;;
29954;SDS011;68448;51.188;6.868;2024-01-16T02:15:45;12.13;;;8.30;;
29954;SDS011;68448;51.188;6.868;2024-01-16T02:18:12;15.97;;;9.47;;
29954;SDS011;68448;51.188;6.868;2024-01-16T02:20:41;17.80;;;10.70;;
29954;SDS011;68448;51.188;6.868;2024-01-16T02:23:08;17.50;;;9.33;;
29954;SDS011;68448;51.188;6.868;2024-01-16T02:25:38;21.10;;;10.17;;
29954;SDS011;68448;51.188;6.868;2024-01-16T02:28:05;15.97;;;10.60;;
29954;SDS011;68448;51.188;6.868;2024-01-16T02:30:32;21.20;;;10.77;;
29954;SDS011;68448;51.188;6.868;2024-01-16T02:33:00;21.70;;;11.70;;
29954;SDS011;68448;51.188;6.868;2024-01-16T02:35:27;21.83;;;11.30;;
29954;SDS011;68448;51.188;6.868;2024-01-16T02:37:54;16.53;;;9.90;;
29954;SDS011;68448;51.188;6.868;2024-01-16T02:40:21;18.90;;;10.90;;
29954;SDS011;68448;51.188;6.868;2024-01-16T02:42:50;21.90;;;10.57;;
29954;SDS011;68448;51.188;6.868;2024-01-16T02:45:17;21.73;;;11.50;;
29954;SDS011;68448;51.188;6.868;2024-01-16T02:47:45;17.13;;;10.30;;
29954;SDS011;68448;51.188;6.868;2024-01-16T02:50:12;19.70;;;10.40;;
29954;SDS011;68448;51.188;6.868;2024-01-16T02:52:39;23.93;;;11.23;;
29954;SDS011;68448;51.188;6.868;2024-01-16T02:55:07;20.80;;;10.30;;
29954;SDS011;68448;51.188;6.868;2024-01-16T02:57:34;22.00;;;10.50;;
29954;SDS011;68448;51.188;6.868;2024-01-16T03:00:03;19.03;;;11.33;;
29954;SDS011;68448;51.188;6.868;2024-01-16T03:02:30;17.93;;;10.57;;
29954;SDS011;68448;51.188;6.868;2024-01-16T03:04:57;17.13;;;10.20;;
29954;SDS011;68448;51.188;6.868;2024-01-16T03:07:24;18.87;;;9.50;;
29954;SDS011;68448;51.188;6.868;2024-01-16T03:09:51;18.37;;;10.90;;
29954;SDS011;68448;51.188;6.868;2024-01-16T03:12:18;24.50;;;11.10;;
29954;SDS011;68448;51.188;6.868;2024-01-16T03:14:45;19.97;;;11.67;;
29954;SDS011;68448;51.188;6.868;2024-01-16T03:17:14;21.00;;;11.20;;
29954;SDS011;68448;51.188;6.868;2024-01-16T03:19:41;19.83;;;12.17;;
29954;SDS011;68448;51.188;6.868;2024-01-16T03:22:08;19.43;;;12.13;;
29954;SDS011;68448;51.188;6.868;2024-01-16T03:24:36;18.60;;;8.70;;
29954;SDS011;68448;51.188;6.868;2024-01-16T03:27:03;20.40;;;9.93;;
29954;SDS011;68448;51.188;6.868;2024-01-16T03:29:30;16.37;;;9.90;;
29954;SDS011;68448;51.188;6.868;2024-01-16T03:31:57;20.13;;;9.10;;
29954;SDS011;68448;51.188;6.868;2024-01-16T03:34:26;25.50;;;10.30;;
29954;SDS011;68448;51.188;6.868;2024-01-16T03:36:53;15.57;;;9.90;;
29954;SDS011;68448;51.188;6.868;2024-01-16T03:39:20;18.00;;;11.13;;
29954;SDS011;68448;51.188;6.868;2024-01-16T03:41:47;21.83;;;8.40;;
29954;SDS011;68448;51.188;6.868;2024-01-16T03:44:14;22.50;;;11.83;;
29954;SDS011;68448;51.188;6.868;2024-01-16T03:46:42;16.10;;;9.90;;
29954;SDS011;68448;51.188;6.868;2024-01-16T03:49:09;18.23;;;10.57;;
29954;SDS011;68448;51.188;6.868;2024-01-16T03:51:38;12.67;;;8.73;;
29954;SDS011;68448;51.188;6.868;2024-01-16T03:54:05;16.60;;;9.30;;
29954;SDS011;68448;51.188;6.868;2024-01-16T03:56:32;10.90;;;7.83;;
29954;SDS011;68448;51.188;6.868;2024-01-16T03:58:59;19.23;;;9.80;;
29954;SDS011;68448;51.188;6.868;2024-01-16T04:01:29;11.43;;;7.63;;
29954;SDS011;68448;51.188;6.868;2024-01-16T04:03:56;11.60;;;7.77;;
29954;SDS011;68448;51.188;6.868;2024-01-16T04:06:24;14.40;;;9.20;;
29954;SDS011;68448;51.188;6.868;2024-01-16T04:08:52;20.53;;;8.87;;
29954;SDS011;68448;51.188;6.868;2024-01-16T04:11:20;14.23;;;9.20;;
29954;SDS011;68448;51.188;6.868;2024-01-16T04:13:47;17.10;;;8.60;;
29954;SDS011;68448;51.188;6.868;2024-01-16T04:16:14;12.63;;;8.17;;
29954;SDS011;68448;51.188;6.868;2024-01-16T04:18:41;12.33;;;7.17;;
29954;SDS011;68448;51.188;6.868;2024-01-16T04:21:09;15.43;;;8.13;;
29954;SDS011;68448;51.188;6.868;2024-01-16T04:23:36;11.20;;;8.60;;
29954;SDS011;68448;51.188;6.868;2024-01-16T04:26:05;13.13;;;6.83;;
29954;SDS011;68448;51.188;6.868;2024-01-16T04:28:32;10.60;;;7.20;;
29954;SDS011;68448;51.188;6.868;2024-01-16T04:30:59;16.40;;;7.90;;
29954;SDS011;68448;51.188;6.868;2024-01-16T04:33:26;18.47;;;8.37;;
29954;SDS011;68448;51.188;6.868;2024-01-16T04:35:54;10.37;;;7.60;;
29954;SDS011;68448;51.188;6.868;2024-01-16T04:38:21;11.70;;;7.87;;
29954;SDS011;68448;51.188;6.868;2024-01-16T04:40:48;8.23;;;6.60;;
29954;SDS011;68448;51.188;6.868;2024-01-16T04:43:17;7.67;;;6.07;;
29954;SDS011;68448;51.188;6.868;2024-01-16T04:45:44;16.00;;;7.97;;
29954;SDS011;68448;51.188;6.868;2024-01-16T04:48:11;11.23;;;8.20;;
29954;SDS011;68448;51.188;6.868;2024-01-16T04:50:38;13.43;;;7.30;;
29954;SDS011;68448;51.188;6.868;2024-01-16T04:53:05;7.60;;;5.20;;
29954;SDS011;68448;51.188;6.868;2024-01-16T04:55:33;17.87;;;9.37;;
29954;SDS011;68448;51.188;6.868;2024-01-16T04:58:00;11.97;;;6.90;;
29954;SDS011;68448;51.188;6.868;2024-01-16T05:00:28;15.80;;;8.60;;
29954;SDS011;68448;51.188;6.868;2024-01-16T05:02:55;15.37;;;8.43;;
29954;SDS011;68448;51.188;6.868;2024-01-16T05:05:23;14.00;;;8.63;;
29954;SDS011;68448;51.188;6.868;2024-01-16T05:07:55;14.70;;;9.60;;
29954;SDS011;68448;51.188;6.868;2024-01-16T05:10:22;12.80;;;8.40;;
29954;SDS011;68448;51.188;6.868;2024-01-16T05:12:49;20.70;;;9.40;;
29954;SDS011;68448;51.188;6.868;2024-01-16T05:15:16;20.83;;;9.63;;
29954;SDS011;68448;51.188;6.868;2024-01-16T05:17:44;21.90;;;10.03;;
29954;SDS011;68448;51.188;6.868;2024-01-16T05:20:12;24.27;;;8.23;;
29954;SDS011;68448;51.188;6.868;2024-01-16T05:22:39;19.30;;;8.03;;
29954;SDS011;68448;51.188;6.868;2024-01-16T05:25:06;20.10;;;10.27;;
29954;SDS011;68448;51.188;6.868;2024-01-16T05:27:34;17.77;;;9.17;;
29954;SDS011;68448;51.188;6.868;2024-01-16T05:30:01;21.67;;;8.53;;
29954;SDS011;68448;51.188;6.868;2024-01-16T05:32:28;25.87;;;10.10;;
29954;SDS011;68448;51.188;6.868;2024-01-16T05:34:58;17.10;;;8.20;;
29954;SDS011;68448;51.188;6.868;2024-01-16T05:37:25;19.73;;;9.93;;
29954;SDS011;68448;51.188;6.868;2024-01-16T05:39:52;16.73;;;8.07;;
29954;SDS011;68448;51.188;6.868;2024-01-16T05:42:19;14.90;;;7.57;;
29954;SDS011;68448;51.188;6.868;2024-01-16T05:44:47;17.23;;;9.40;;
29954;SDS011;68448;51.188;6.868;2024-01-16T05:47:14;14.10;;;9.00;;
29954;SDS011;68448;51.188;6.868;2024-01-16T05:49:41;14.40;;;8.50;;
29954;SDS011;68448;51.188;6.868;2024-01-16T05:52:10;28.40;;;10.13;;
29954;SDS011;68448;51.188;6.868;2024-01-16T05:54:37;16.37;;;6.87;;
29954;SDS011;68448;51.188;6.868;2024-01-16T05:57:04;13.33;;;7.27;;
29954;SDS011;68448;51.188;6.868;2024-01-16T05:59:32;29.23;;;9.90;;
29954;SDS011;68448;51.188;6.868;2024-01-16T06:01:59;20.83;;;7.17;;
29954;SDS011;68448;51.188;6.868;2024-01-16T06:04:26;17.37;;;6.93;;
29954;SDS011;68448;51.188;6.868;2024-01-16T06:06:53;18.40;;;7.40;;
29954;SDS011;68448;51.188;6.868;2024-01-16T06:09:22;14.97;;;6.87;;
29954;SDS011;68448;51.188;6.868;2024-01-16T06:11:49;9.87;;;5.07;;
29954;SDS011;68448;51.188;6.868;2024-01-16T06:14:16;26.63;;;7.93;;
29954;SDS011;68448;51.188;6.868;2024-01-16T06:16:46;16.50;;;6.77;;
29954;SDS011;68448;51.188;6.868;2024-01-16T06:19:13;10.73;;;5.60;;
29954;SDS011;68448;51.188;6.868;2024-01-16T06:21:40;10.40;;;4.57;;
29954;SDS011;68448;51.188;6.868;2024-01-16T06:24:08;11.40;;;5.57;;
29954;SDS011;68448;51.188;6.868;2024-01-16T06:26:36;9.63;;;4.77;;
29954;SDS011;68448;51.188;6.868;2024-01-16T06:29:03;17.13;;;5.97;;
29954;SDS011;68448;51.188;6.868;2024-01-16T06:31:33;9.83;;;4.50;;
29954;SDS011;68448;51.188;6.868;2024-01-16T06:34:00;12.43;;;6.23;;
29954;SDS011;68448;51.188;6.868;2024-01-16T06:36:27;12.53;;;5.50;;
29954;SDS011;68448;51.188;6.868;2024-01-16T06:38:55;9.67;;;4.57;;
29954;SDS011;68448;51.188;6.868;2024-01-16T06:41:22;13.00;;;4.73;;
29954;SDS011;68448;51.188;6.868;2024-01-16T06:43:50;12.60;;;5.40;;
29954;SDS011;68448;51.188;6.868;2024-01-16T06:46:17;10.83;;;4.17;;
29954;SDS011;68448;51.188;6.868;2024-01-16T06:48:45;13.03;;;6.27;;
29954;SDS011;68448;51.188;6.868;2024-01-16T06:51:12;10.83;;;5.47;;
29954;SDS011;68448;51.188;6.868;2024-01-16T06:53:39;10.40;;;5.00;;
29954;SDS011;68448;51.188;6.868;2024-01-16T06:56:06;10.40;;;5.77;;
29954;SDS011;68448;51.188;6.868;2024-01-16T06:58:34;12.20;;;4.40;;
29954;SDS011;68448;51.188;6.868;2024-01-16T07:01:03;15.90;;;4.83;;
29954;SDS011;68448;51.188;6.868;2024-01-16T07:03:30;12.73;;;4.70;;
29954;SDS011;68448;51.188;6.868;2024-01-16T07:05:57;6.03;;;3.93;;
29954;SDS011;68448;51.188;6.868;2024-01-16T07:08:25;11.43;;;4.60;;
29954;SDS011;68448;51.188;6.868;2024-01-16T07:10:52;11.13;;;4.83;;
29954;SDS011;68448;51.188;6.868;2024-01-16T07:13:19;12.63;;;4.50;;
29954;SDS011;68448;51.188;6.868;2024-01-16T07:15:46;13.27;;;5.30;;
29954;SDS011;68448;51.188;6.868;2024-01-16T07:18:15;7.90;;;4.70;;
29954;SDS011;68448;51.188;6.868;2024-01-16T07:20:42;6.67;;;2.90;;
29954;SDS011;68448;51.188;6.868;2024-01-16T07:23:09;13.93;;;3.50;;
29954;SDS011;68448;51.188;6.868;2024-01-16T07:25:37;15.50;;;4.53;;
29954;SDS011;68448;51.188;6.868;2024-01-16T07:28:04;12.60;;;3.30;;
29954;SDS011;68448;51.188;6.868;2024-01-16T07:30:31;14.80;;;5.37;;
29954;SDS011;68448;51.188;6.868;2024-01-16T07:32:58;14.67;;;4.13;;
29954;SDS011;68448;51.188;6.868;2024-01-16T07:35:27;10.67;;;4.30;;
29954;SDS011;68448;51.188;6.868;2024-01-16T07:37:54;13.23;;;3.53;;
29954;SDS011;68448;51.188;6.868;2024-01-16T07:40:21;11.73;;;3.73;;
29954;SDS011;68448;51.188;6.868;2024-01-16T07:42:48;8.40;;;3.40;;
29954;SDS011;68448;51.188;6.868;2024-01-16T07:45:15;10.37;;;4.03;;
29954;SDS011;68448;51.188;6.868;2024-01-16T07:47:43;5.13;;;2.83;;
29954;SDS011;68448;51.188;6.868;2024-01-16T07:50:10;13.53;;;4.30;;
29954;SDS011;68448;51.188;6.868;2024-01-16T07:52:38;18.33;;;4.80;;
29954;SDS011;68448;51.188;6.868;2024-01-16T07:55:06;10.70;;;3.57;;
29954;SDS011;68448;51.188;6.868;2024-01-16T07:57:33;9.43;;;3.30;;
29954;SDS011;68448;51.188;6.868;2024-01-16T08:00:00;12.57;;;5.10;;
29954;SDS011;68448;51.188;6.868;2024-01-16T08:02:31;10.30;;;4.10;;
29954;SDS011;68448;51.188;6.868;2024-01-16T08:04:59;10.13;;;4.17;;
29954;SDS011;68448;51.188;6.868;2024-01-16T08:07:26;21.93;;;4.10;;
29954;SDS011;68448;51.188;6.868;2024-01-16T08:09:55;7.83;;;3.87;;
29954;SDS011;68448;51.188;6.868;2024-01-16T08:12:22;16.33;;;4.83;;
29954;SDS011;68448;51.188;6.868;2024-01-16T08:14:49;12.03;;;4.67;;
29954;SDS011;68448;51.188;6.868;2024-01-16T08:17:16;13.43;;;4.30;;
29954;SDS011;68448;51.188;6.868;2024-01-16T08:19:44;13.23;;;4.37;;
29954;SDS011;68448;51.188;6.868;2024-01-16T08:22:11;10.77;;;4.57;;
29954;SDS011;68448;51.188;6.868;2024-01-16T08:24:38;8.00;;;3.10;;
29954;SDS011;68448;51.188;6.868;2024-01-16T08:27:07;9.97;;;3.70;;
29954;SDS011;68448;51.188;6.868;2024-01-16T08:29:34;4.77;;;3.30;;
29954;SDS011;68448;51.188;6.868;2024-01-16T08:32:01;8.67;;;4.27;;
29954;SDS011;68448;51.188;6.868;2024-01-16T08:34:28;7.33;;;4.37;;
29954;SDS011;68448;51.188;6.868;2024-01-16T08:36:56;8.10;;;4.07;;
29954;SDS011;68448;51.188;6.868;2024-01-16T08:39:23;9.40;;;3.90;;
29954;SDS011;68448;51.188;6.868;2024-01-16T08:41:51;9.43;;;3.93;;
29954;SDS011;68448;51.188;6.868;2024-01-16T08:44:19;8.80;;;4.10;;
29954;SDS011;68448;51.188;6.868;2024-01-16T08:46:46;17.17;;;5.27;;
29954;SDS011;68448;51.188;6.868;2024-01-16T08:49:13;14.97;;;4.43;;
29954;SDS011;68448;51.188;6.868;2024-01-16T08:51:46;6.50;;;3.53;;
29954;SDS011;68448;51.188;6.868;2024-01-16T08:54:14;11.47;;;3.40;;
29954;SDS011;68448;51.188;6.868;2024-01-16T08:56:41;10.80;;;5.27;;
29954;SDS011;68448;51.188;6.868;2024-01-16T08:59:08;12.53;;;3.80;;
29954;SDS011;68448;51.188;6.868;2024-01-16T09:01:37;6.50;;;3.20;;
29954;SDS011;68448;51.188;6.868;2024-01-16T09:04:04;9.73;;;3.80;;
29954;SDS011;68448;51.188;6.868;2024-01-16T09:06:31;7.10;;;2.60;;
29954;SDS011;68448;51.188;6.868;2024-01-16T09:08:58;10.57;;;4.23;;
29954;SDS011;68448;51.188;6.868;2024-01-16T09:11:26;6.93;;;3.93;;
29954;SDS011;68448;51.188;6.868;2024-01-16T09:13:53;10.60;;;3.73;;
29954;SDS011;68448;51.188;6.868;2024-01-16T09:16:20;9.53;;;3.73;;
29954;SDS011;68448;51.188;6.868;2024-01-16T09:18:49;6.73;;;3.60;;
29954;SDS011;68448;51.188;6.868;2024-01-16T09:21:16;9.00;;;4.63;;
29954;SDS011;68448;51.188;6.868;2024-01-16T09:23:44;10.30;;;4.00;;
29954;SDS011;68448;51.188;6.868;2024-01-16T09:26:11;11.47;;;3.97;;
29954;SDS011;68448;51.188;6.868;2024-01-16T09:28:38;7.70;;;3.70;;
29954;SDS011;68448;51.188;6.868;2024-01-16T09:31:05;13.63;;;4.40;;
29954;SDS011;68448;51.188;6.868;2024-01-16T09:33:33;7.40;;;3.77;;
29954;SDS011;68448;51.188;6.868;2024-01-16T09:36:02;10.03;;;3.77;;
29954;SDS011;68448;51.188;6.868;2024-01-16T09:38:29;11.33;;;3.63;;
29954;SDS011;68448;51.188;6.868;2024-01-16T09:40:56;14.50;;;3.83;;
29954;SDS011;68448;51.188;6.868;2024-01-16T09:43:25;11.60;;;4.70;;
29954;SDS011;68448;51.188;6.868;2024-01-16T09:45:53;5.70;;;3.47;;
29954;SDS011;68448;51.188;6.868;2024-01-16T09:48:21;11.00;;;3.67;;
29954;SDS011;68448;51.188;6.868;2024-01-16T09:50:49;8.27;;;4.20;;
29954;SDS011;68448;51.188;6.868;2024-01-16T09:53:18;10.57;;;4.13;;
29954;SDS011;68448;51.188;6.868;2024-01-16T09:55:45;15.37;;;5.40;;
29954;SDS011;68448;51.188;6.868;2024-01-16T09:58:12;13.57;;;5.33;;
29954;SDS011;68448;51.188;6.868;2024-01-16T10:00:40;12.60;;;4.40;;
29954;SDS011;68448;51.188;6.868;2024-01-16T10:03:09;18.63;;;4.40;;
29954;SDS011;68448;51.188;6.868;2024-01-16T10:05:37;14.57;;;4.77;;
29954;SDS011;68448;51.188;6.868;2024-01-16T10:08:05;9.03;;;4.10;;
29954;SDS011;68448;51.188;6.868;2024-01-16T10:10:34;11.83;;;5.23;;
29954;SDS011;68448;51.188;6.868;2024-01-16T10:13:13;7.17;;;4.13;;
29954;SDS011;68448;51.188;6.868;2024-01-16T10:15:41;10.23;;;4.80;;
29954;SDS011;68448;51.188;6.868;2024-01-16T10:18:19;8.90;;;4.17;;
29954;SDS011;68448;51.188;6.868;2024-01-16T10:20:48;7.30;;;3.40;;
29954;SDS011;68448;51.188;6.868;2024-01-16T10:23:21;11.73;;;4.30;;
29954;SDS011;68448;51.188;6.868;2024-01-16T10:25:59;15.07;;;4.00;;
29954;SDS011;68448;51.188;6.868;2024-01-16T10:28:31;8.60;;;4.40;;
29954;SDS011;68448;51.188;6.868;2024-01-16T10:31:01;10.50;;;4.43;;
29954;SDS011;68448;51.188;6.868;2024-01-16T10:33:29;7.57;;;3.50;;
29954;SDS011;68448;51.188;6.868;2024-01-16T10:36:09;11.73;;;3.73;;
29954;SDS011;68448;51.188;6.868;2024-01-16T10:38:37;7.73;;;3.80;;
29954;SDS011;68448;51.188;6.868;2024-01-16T10:41:15;12.77;;;4.80;;
29954;SDS011;68448;51.188;6.868;2024-01-16T10:43:42;8.80;;;3.13;;
29954;SDS011;68448;51.188;6.868;2024-01-16T10:46:11;17.77;;;4.27;;
29954;SDS011;68448;51.188;6.868;2024-01-16T10:48:40;8.83;;;3.30;;
29954;SDS011;68448;51.188;6.868;2024-01-16T10:51:08;10.70;;;4.53;;
29954;SDS011;68448;51.188;6.868;2024-01-16T10:53:36;6.63;;;3.43;;
29954;SDS011;68448;51.188;6.868;2024-01-16T10:56:04;7.13;;;4.30;;
29954;SDS011;68448;51.188;6.868;2024-01-16T10:58:34;11.93;;;4.23;;
29954;SDS011;68448;51.188;6.868;2024-01-16T11:01:03;6.67;;;3.27;;
29954;SDS011;68448;51.188;6.868;2024-01-16T11:03:34;11.87;;;3.47;;
29954;SDS011;68448;51.188;6.868;2024-01-16T11:06:02;9.53;;;3.53;;
29954;SDS011;68448;51.188;6.868;2024-01-16T11:08:32;13.57;;;4.47;;
29954;SDS011;68448;51.188;6.868;2024-01-16T11:11:00;8.70;;;4.37;;
29954;SDS011;68448;51.188;6.868;2024-01-16T11:13:27;15.97;;;4.40;;
29954;SDS011;68448;51.188;6.868;2024-01-16T11:15:56;12.33;;;3.67;;
29954;SDS011;68448;51.188;6.868;2024-01-16T11:18:25;11.33;;;4.17;;
29954;SDS011;68448;51.188;6.868;2024-01-16T11:20:53;7.40;;;3.20;;
29954;SDS011;68448;51.188;6.868;2024-01-16T11:23:33;8.30;;;4.10;;
29954;SDS011;68448;51.188;6.868;2024-01-16T11:26:02;8.27;;;4.37;;
29954;SDS011;68448;51.188;6.868;2024-01-16T11:28:50;8.00;;;4.13;;
29954;SDS011;68448;51.188;6.868;2024-01-16T11:31:32;9.30;;;4.43;;
29954;SDS011;68448;51.188;6.868;2024-01-16T11:33:59;10.13;;;3.53;;
29954;SDS011;68448;51.188;6.868;2024-01-16T11:36:43;7.30;;;4.33;;
29954;SDS011;68448;51.188;6.868;2024-01-16T11:39:10;6.50;;;3.57;;
29954;SDS011;68448;51.188;6.868;2024-01-16T11:41:47;9.73;;;4.40;;
29954;SDS011;68448;51.188;6.868;2024-01-16T11:47:01;10.13;;;4.73;;
29954;SDS011;68448;51.188;6.868;2024-01-16T11:49:29;8.40;;;4.70;;
29954;SDS011;68448;51.188;6.868;2024-01-16T11:51:56;14.80;;;4.47;;
29954;SDS011;68448;51.188;6.868;2024-01-16T11:54:23;10.10;;;4.40;;
29954;SDS011;68448;51.188;6.868;2024-01-16T11:56:59;8.43;;;4.83;;
29954;SDS011;68448;51.188;6.868;2024-01-16T11:59:42;6.67;;;4.20;;
29954;SDS011;68448;51.188;6.868;2024-01-16T12:02:20;7.70;;;4.33;;
29954;SDS011;68448;51.188;6.868;2024-01-16T12:04:54;9.33;;;4.20;;
29954;SDS011;68448;51.188;6.868;2024-01-16T12:07:21;5.53;;;3.60;;
29954;SDS011;68448;51.188;6.868;2024-01-16T12:09:48;8.03;;;3.60;;
29954;SDS011;68448;51.188;6.868;2024-01-16T12:12:15;10.90;;;5.10;;
29954;SDS011;68448;51.188;6.868;2024-01-16T12:14:46;16.17;;;5.80;;
29954;SDS011;68448;51.188;6.868;2024-01-16T12:17:19;7.10;;;4.10;;
29954;SDS011;68448;51.188;6.868;2024-01-16T12:19:46;11.70;;;4.90;;
29954;SDS011;68448;51.188;6.868;2024-01-16T12:22:13;12.97;;;4.73;;
29954;SDS011;68448;51.188;6.868;2024-01-16T12:24:40;7.53;;;3.70;;
29954;SDS011;68448;51.188;6.868;2024-01-16T12:27:08;7.73;;;4.07;;
29954;SDS011;68448;51.188;6.868;2024-01-16T12:29:35;8.50;;;5.37;;
29954;SDS011;68448;51.188;6.868;2024-01-16T12:32:06;10.37;;;4.20;;
29954;SDS011;68448;51.188;6.868;2024-01-16T12:34:41;11.90;;;4.37;;
29954;SDS011;68448;51.188;6.868;2024-01-16T12:37:10;8.10;;;4.10;;
29954;SDS011;68448;51.188;6.868;2024-01-16T12:39:37;6.93;;;4.27;;
29954;SDS011;68448;51.188;6.868;2024-01-16T12:42:04;6.40;;;4.00;;
29954;SDS011;68448;51.188;6.868;2024-01-16T12:44:31;8.50;;;3.77;;
29954;SDS011;68448;51.188;6.868;2024-01-16T12:46:59;8.13;;;4.20;;
29954;SDS011;68448;51.188;6.868;2024-01-16T12:49:26;9.10;;;5.33;;
29954;SDS011;68448;51.188;6.868;2024-01-16T12:54:36;7.87;;;4.40;;
29954;SDS011;68448;51.188;6.868;2024-01-16T12:57:04;8.03;;;4.50;;
29954;SDS011;68448;51.188;6.868;2024-01-16T12:59:31;8.17;;;4.60;;
29954;SDS011;68448;51.188;6.868;2024-01-16T13:01:58;6.37;;;4.03;;
29954;SDS011;68448;51.188;6.868;2024-01-16T13:04:25;10.70;;;3.97;;
29954;SDS011;68448;51.188;6.868;2024-01-16T13:07:00;6.70;;;3.93;;
29954;SDS011;68448;51.188;6.868;2024-01-16T13:09:27;11.93;;;4.20;;
29954;SDS011;68448;51.188;6.868;2024-01-16T13:11:56;7.57;;;4.00;;
29954;SDS011;68448;51.188;6.868;2024-01-16T13:14:23;6.97;;;3.67;;
29954;SDS011;68448;51.188;6.868;2024-01-16T13:16:51;7.23;;;4.60;;
29954;SDS011;68448;51.188;6.868;2024-01-16T13:19:18;8.07;;;4.77;;
29954;SDS011;68448;51.188;6.868;2024-01-16T13:21:46;11.30;;;4.37;;
29954;SDS011;68448;51.188;6.868;2024-01-16T13:24:14;6.27;;;4.20;;
29954;SDS011;68448;51.188;6.868;2024-01-16T13:26:41;7.87;;;3.97;;
29954;SDS011;68448;51.188;6.868;2024-01-16T13:29:09;7.57;;;3.67;;
29954;SDS011;68448;51.188;6.868;2024-01-16T13:31:36;11.50;;;4.63;;
29954;SDS011;68448;51.188;6.868;2024-01-16T13:34:04;12.60;;;4.63;;
29954;SDS011;68448;51.188;6.868;2024-01-16T13:36:31;9.90;;;4.57;;
29954;SDS011;68448;51.188;6.868;2024-01-16T13:39:18;8.30;;;4.10;;
29954;SDS011;68448;51.188;6.868;2024-01-16T13:41:45;7.70;;;4.90;;
29954;SDS011;68448;51.188;6.868;2024-01-16T13:44:14;7.17;;;4.33;;
29954;SDS011;68448;51.188;6.868;2024-01-16T13:46:41;7.80;;;4.90;;
29954;SDS011;68448;51.188;6.868;2024-01-16T13:49:26;13.47;;;4.20;;
29954;SDS011;68448;51.188;6.868;2024-01-16T13:51:54;5.27;;;3.90;;
29954;SDS011;68448;51.188;6.868;2024-01-16T13:54:21;10.83;;;5.17;;
29954;SDS011;68448;51.188;6.868;2024-01-16T13:56:49;9.90;;;4.40;;
29954;SDS011;68448;51.188;6.868;2024-01-16T13:59:33;7.47;;;5.70;;
29954;SDS011;68448;51.188;6.868;2024-01-16T14:02:01;10.30;;;3.67;;
29954;SDS011;68448;51.188;6.868;2024-01-16T14:04:28;8.20;;;4.37;;
29954;SDS011;68448;51.188;6.868;2024-01-16T14:06:55;11.40;;;4.47;;
29954;SDS011;68448;51.188;6.868;2024-01-16T14:09:38;13.10;;;3.93;;
29954;SDS011;68448;51.188;6.868;2024-01-16T14:12:06;10.80;;;4.53;;
29954;SDS011;68448;51.188;6.868;2024-01-16T14:14:34;5.17;;;3.50;;
29954;SDS011;68448;51.188;6.868;2024-01-16T14:17:02;7.10;;;4.57;;
29954;SDS011;68448;51.188;6.868;2024-01-16T14:19:29;12.57;;;5.17;;
29954;SDS011;68448;51.188;6.868;2024-01-16T14:21:57;8.83;;;4.97;;
29954;SDS011;68448;51.188;6.868;2024-01-16T14:24:25;13.30;;;5.23;;
29954;SDS011;68448;51.188;6.868;2024-01-16T14:26:52;10.17;;;5.50;;
29954;SDS011;68448;51.188;6.868;2024-01-16T14:29:19;13.20;;;5.10;;
29954;SDS011;68448;51.188;6.868;2024-01-16T14:31:48;8.00;;;4.77;;
29954;SDS011;68448;51.188;6.868;2024-01-16T14:34:16;13.17;;;5.27;;
29954;SDS011;68448;51.188;6.868;2024-01-16T14:36:43;9.37;;;4.40;;
29954;SDS011;68448;51.188;6.868;2024-01-16T14:39:10;10.70;;;4.07;;
29954;SDS011;68448;51.188;6.868;2024-01-16T14:41:37;7.70;;;4.37;;
29954;SDS011;68448;51.188;6.868;2024-01-16T14:44:04;5.90;;;3.80;;
29954;SDS011;68448;51.188;6.868;2024-01-16T14:46:32;8.83;;;4.47;;